Aérodrome :
LOGIN :

S'inscrire | Disclaimer

   EN    FR    IT 

 










Légende :    VFR   VFR Marginal   IFR   IFR Intensif   IFR Très Intensif
Visi : 
Plafond : 
>= 8 km
>= 3000ft
5 à 8 km
1000 à 3000 ft
1500m à 5 km
500 à 1000 ft
800 à 1500m
200 à 500 ft
< 800m
< 200 ft
Symboles :   Orages  Brouillard  Fortes neiges  Fortes précipitations  Vent > 20 kt
SIGMETs :   Divers  Orages  Givrage  Turbulence  Onde Orograph.  Cendres Volcan.






- Altitude de l'aérodrome : 935 ft


EBFS - Florennes

DERNIER METAR :
  • 101122Z 28010KT 9999 SCT020 BKN025 BKN070 18/13 Q1015 WHT WHT

METARs EXPIRÉS :
  • 101055Z 29010KT 9999 SCT020 BKN025 BKN070 17/12 Q1015 WHT WHT TEMPO GRN
  • 101025Z 30010KT 9999 FEW010 SCT015 BKN022 16/13 Q1015 WHT WHT TEMPO GRN
  • 100955Z 28010KT 9999 FEW010 SCT015 BKN020 17/14 Q1014 WHT WHT TEMPO GRN
  • 100925Z 27010KT 8000 SCT008 BKN012 BKN020 16/14 Q1014 GRN GRN
  • 100855Z 29010KT 9999 FEW008 SCT012 BKN250 16/14 Q1013 GRN GRN
  • 100825Z 27012KT 9999 SCT008 BKN010 16/14 Q1013 GRN GRN TEMPO YLO

TAF TAF EBFS
Valide du 10 à 10h jusqu'au 10 à 19h UTC


100841Z 1010/1019 25012G25KT 9999 SCT012 BKN015
BECMG 1010/1012 33012KT
BECMG 1011/1013 FEW015 BKN020
TEMPO 1013/1019 6000 -SHRA SCT018TCU BKN020



MET'MAP, la Météo Aéronautique d'un coup d'oeil ! - Copyright ORBIFLY Décembre 2007 - Disclaimer

ORBIFLY MET'MAP TEAM :

Programmation & Développement : Alexandra Zaïnal
Sur une idée originale de : Baudouin d'Aumeries
Assistance à la programmation : Marc-Olivier Méhu
Soutien technique & logistique : Manuel Goepfert

Contact : metmap@orbifly.com




SOURCES & CREDITS :

   NOAA